Time;durP1;ratioP1;P1;durP2;ratioP2;P2;SDS_P1;SDS_P2;PMS_P1;PMS_P2;Temp;Humidity;BMP_temperature;BMP_pressure;BME280_temperature;BME280_humidity;BME280_pressure;Samples;Min_cycle;Max_cycle;Signal;HPM_P1;HPM_P2
2022/11/03 00:00:12;;;;;;;6.60;4.80;;;;;;;16.94;nan;95565.34;5031088;28;20284;-72
2022/11/03 00:02:38;;;;;;;7.78;4.68;;;;;;;16.90;nan;95571.56;5030729;28;20213;-72
2022/11/03 00:07:46;;;;;;;8.57;5.07;;;;;;;16.93;nan;95573.97;5029341;28;20747;-72
2022/11/03 00:10:13;;;;;;;9.15;4.72;;;;;;;16.77;nan;95570.53;5030998;28;20286;-73
2022/11/03 00:12:40;;;;;;;5.18;4.45;;;;;;;16.84;nan;95574.41;5030828;28;20218;-72
2022/11/03 00:15:09;;;;;;;8.77;4.60;;;;;;;16.83;nan;95574.50;5031106;28;20222;-73
2022/11/03 00:17:36;;;;;;;7.93;4.55;;;;;;;16.73;nan;95576.69;5030747;28;20312;-71
2022/11/03 00:20:03;;;;;;;11.57;5.30;;;;;;;16.86;nan;95582.03;5030647;28;20272;-71
2022/11/03 00:22:32;;;;;;;10.23;4.60;;;;;;;16.82;nan;95578.81;5030409;28;20257;-71
2022/11/03 00:24:59;;;;;;;15.27;5.20;;;;;;;16.77;nan;95583.34;5031220;28;20211;-72
2022/11/03 00:27:25;;;;;;;5.63;5.13;;;;;;;16.79;nan;95578.97;5029855;28;20208;-72
2022/11/03 00:29:52;;;;;;;10.55;5.50;;;;;;;16.91;nan;95586.03;5030835;28;20203;-72
2022/11/03 00:32:20;;;;;;;9.48;4.57;;;;;;;16.90;nan;95581.81;5030823;28;20677;-72
2022/11/03 00:34:47;;;;;;;5.72;5.22;;;;;;;16.89;nan;95581.91;5030548;28;20210;-72
2022/11/03 00:37:13;;;;;;;9.32;5.63;;;;;;;16.78;nan;95579.88;5029727;28;20211;-71
2022/11/03 00:39:40;;;;;;;7.30;5.28;;;;;;;16.65;nan;95583.94;5029949;28;20207;-71
2022/11/03 00:42:07;;;;;;;7.65;5.05;;;;;;;16.82;nan;95581.38;5029922;28;20199;-71
2022/11/03 00:44:34;;;;;;;12.18;6.00;;;;;;;16.63;nan;95576.31;5030330;28;20207;-71
2022/11/03 00:47:00;;;;;;;12.68;5.60;;;;;;;16.44;nan;95584.94;5030294;28;20268;-71
2022/11/03 00:49:28;;;;;;;16.10;5.25;;;;;;;16.59;nan;95579.06;5030404;28;20252;-71
2022/11/03 00:51:55;;;;;;;7.82;5.88;;;;;;;16.69;nan;95585.47;5029438;28;20795;-71
2022/11/03 00:54:22;;;;;;;9.63;5.60;;;;;;;16.53;nan;95584.53;5029455;28;20215;-72
2022/11/03 00:56:48;;;;;;;8.80;4.97;;;;;;;16.49;nan;95583.00;5026775;28;20239;-71
2022/11/03 00:59:15;;;;;;;9.95;5.60;;;;;;;16.43;nan;95578.16;5026710;28;20231;-72
2022/11/03 01:01:43;;;;;;;9.55;5.32;;;;;;;16.28;nan;95583.13;5025103;28;20666;-72
2022/11/03 01:06:58;;;;;;;13.52;8.05;;;;;;;16.45;nan;95576.34;5025571;28;20291;-72
2022/11/03 01:09:27;;;;;;;12.93;7.45;;;;;;;16.39;nan;95574.06;5026636;28;20292;-71
2022/11/03 01:11:58;;;;;;;10.95;7.95;;;;;;;16.51;nan;95582.03;5025611;28;20262;-71
2022/11/03 01:14:27;;;;;;;13.02;8.10;;;;;;;16.50;nan;95575.22;5027143;28;20223;-74
2022/11/03 01:16:53;;;;;;;16.23;8.32;;;;;;;16.54;nan;95573.34;5025719;28;20724;-72
2022/11/03 01:19:20;;;;;;;14.48;8.00;;;;;;;16.52;nan;95578.56;5025348;28;21330;-73
2022/11/03 01:21:47;;;;;;;17.40;8.95;;;;;;;16.39;nan;95577.47;5026342;28;20203;-73
2022/11/03 01:24:15;;;;;;;12.18;7.47;;;;;;;16.45;nan;95578.91;5024927;28;20263;-73
2022/11/03 01:26:42;;;;;;;18.40;7.70;;;;;;;16.30;nan;95576.19;5025305;28;20964;-72
2022/11/03 01:29:09;;;;;;;12.73;8.32;;;;;;;16.48;nan;95573.66;5025641;28;20227;-71
2022/11/03 01:31:35;;;;;;;11.15;7.68;;;;;;;16.66;nan;95576.16;5024561;28;20428;-72
2022/11/03 01:34:02;;;;;;;14.95;8.50;;;;;;;16.60;nan;95580.72;5025399;28;20280;-72
2022/11/03 01:36:29;;;;;;;9.65;8.18;;;;;;;16.55;nan;95575.84;5024586;28;20718;-72
2022/11/03 01:38:56;;;;;;;18.83;9.88;;;;;;;16.46;nan;95576.28;5026351;28;20206;-72
2022/11/03 01:41:27;;;;;;;16.45;9.23;;;;;;;16.48;nan;95574.47;5025363;28;20264;-72
2022/11/03 01:44:25;;;;;;;12.98;9.55;;;;;;;16.41;nan;95575.66;5025833;28;20230;-73
2022/11/03 01:46:55;;;;;;;16.23;8.98;;;;;;;16.40;nan;95568.03;5026456;28;20207;-72
2022/11/03 01:49:29;;;;;;;13.32;8.90;;;;;;;16.18;nan;95574.19;5024008;28;20199;-72
2022/11/03 01:52:02;;;;;;;17.13;9.30;;;;;;;16.23;nan;95567.13;5024056;28;20272;-72
2022/11/03 01:54:31;;;;;;;14.10;8.35;;;;;;;16.19;nan;95581.00;5023730;28;20207;-72
2022/11/03 01:57:00;;;;;;;25.33;10.43;;;;;;;16.08;nan;95578.13;5032938;28;20732;-72
2022/11/03 01:59:28;;;;;;;15.25;9.85;;;;;;;16.07;nan;95583.31;5037078;28;20206;-72
2022/11/03 02:01:55;;;;;;;20.00;10.70;;;;;;;16.12;nan;95584.75;5036737;28;20257;-72
2022/11/03 02:04:27;;;;;;;18.95;9.57;;;;;;;15.97;nan;95588.84;5038699;28;20211;-72
2022/11/03 02:07:02;;;;;;;21.63;10.27;;;;;;;15.98;nan;95577.72;5038574;28;20225;-72
2022/11/03 02:09:30;;;;;;;16.90;10.85;;;;;;;16.03;nan;95579.22;5038187;28;20672;-72
2022/11/03 02:12:09;;;;;;;15.45;9.57;;;;;;;15.98;nan;95587.13;5037688;28;20229;-72
2022/11/03 02:14:40;;;;;;;22.55;10.50;;;;;;;15.92;nan;95584.84;5037339;28;20272;-72
2022/11/03 02:17:10;;;;;;;18.70;10.88;;;;;;;15.87;nan;95584.22;5037012;28;20242;-72
2022/11/03 02:19:41;;;;;;;19.35;11.05;;;;;;;15.90;nan;95584.06;5042279;28;20206;-73
2022/11/03 02:22:36;;;;;;;14.13;9.77;;;;;;;15.99;nan;95575.97;5041242;28;20210;-71
2022/11/03 02:25:15;;;;;;;12.18;9.43;;;;;;;15.83;nan;95582.72;5001827;28;20633;-71
2022/11/03 02:27:44;;;;;;;17.70;10.75;;;;;;;15.80;nan;95582.84;5043351;28;20749;-72
2022/11/03 02:30:11;;;;;;;14.32;10.23;;;;;;;15.69;nan;95585.88;5041086;28;20254;-73
2022/11/03 02:32:46;;;;;;;18.45;10.48;;;;;;;15.64;nan;95582.69;5041838;28;20275;-72
2022/11/03 02:35:24;;;;;;;11.90;9.60;;;;;;;15.68;nan;95584.22;5041285;28;20203;-72
2022/11/03 02:37:55;;;;;;;15.98;9.02;;;;;;;15.75;nan;95582.22;5040497;28;20672;-72
2022/11/03 02:40:28;;;;;;;16.38;10.13;;;;;;;15.86;nan;95582.56;5040456;28;20210;-73
2022/11/03 02:42:58;;;;;;;17.75;9.82;;;;;;;15.81;nan;95581.97;5040929;28;20974;-72
2022/11/03 02:45:26;;;;;;;12.70;8.85;;;;;;;15.89;nan;95578.13;5041056;28;20237;-73
2022/11/03 02:47:55;;;;;;;18.13;8.10;;;;;;;15.86;nan;95585.94;5038056;28;20199;-73
2022/11/03 02:50:27;;;;;;;16.38;8.55;;;;;;;15.83;nan;95582.72;5040585;28;20202;-72
2022/11/03 02:52:54;;;;;;;22.83;9.57;;;;;;;15.69;nan;95579.94;5040854;28;20217;-72
2022/11/03 02:55:32;;;;;;;15.60;8.40;;;;;;;15.58;nan;95585.56;5040679;28;20203;-73
2022/11/03 02:58:08;;;;;;;12.70;9.00;;;;;;;15.30;nan;95583.34;5032174;28;20207;-73
2022/11/03 03:00:42;;;;;;;15.10;9.05;;;;;;;15.37;nan;95583.88;5032275;28;20298;-73
2022/11/03 03:03:15;;;;;;;13.30;8.57;;;;;;;15.44;nan;95582.72;5032535;28;20296;-72
2022/11/03 03:05:45;;;;;;;13.30;8.85;;;;;;;15.25;nan;95585.28;5031861;28;20708;-72
2022/11/03 03:08:14;;;;;;;15.50;8.65;;;;;;;15.41;nan;95586.25;5031683;28;20285;-73
2022/11/03 03:10:44;;;;;;;13.13;9.02;;;;;;;15.51;nan;95590.09;5032068;28;20266;-73
2022/11/03 03:13:15;;;;;;;13.05;9.43;;;;;;;15.58;nan;95583.84;5033004;28;20231;-72
2022/11/03 03:15:47;;;;;;;16.92;8.88;;;;;;;15.68;nan;95593.66;5031488;28;20211;-74
2022/11/03 03:18:23;;;;;;;16.63;8.85;;;;;;;15.41;nan;95585.41;5031303;28;20257;-73
2022/11/03 03:20:59;;;;;;;14.18;8.23;;;;;;;15.29;nan;95595.31;5032985;28;20280;-74
2022/11/03 03:23:31;;;;;;;12.57;7.57;;;;;;;15.15;nan;95584.00;5030978;28;20770;-74
2022/11/03 03:26:03;;;;;;;19.52;9.35;;;;;;;15.04;nan;95578.53;5031663;28;20264;-73
2022/11/03 03:28:36;;;;;;;11.15;8.10;;;;;;;15.26;nan;95592.06;5030626;28;20202;-73
2022/11/03 03:31:08;;;;;;;13.32;9.40;;;;;;;15.51;nan;95586.69;5030968;28;20782;-72
2022/11/03 03:33:37;;;;;;;17.10;8.63;;;;;;;15.51;nan;95587.53;5031573;28;20215;-72
2022/11/03 03:36:08;;;;;;;16.17;8.15;;;;;;;15.42;nan;95585.34;5031557;28;20207;-73
2022/11/03 03:38:40;;;;;;;14.93;10.57;;;;;;;15.25;nan;95591.22;5030912;28;20226;-72
2022/11/03 03:41:10;;;;;;;18.08;9.05;;;;;;;15.05;nan;95588.69;5030751;28;20761;-72
2022/11/03 03:43:39;;;;;;;22.20;8.68;;;;;;;15.19;nan;95596.59;5031401;28;20207;-72
2022/11/03 03:46:10;;;;;;;13.60;8.05;;;;;;;15.45;nan;95598.03;5030677;28;20339;-72
2022/11/03 03:48:37;;;;;;;14.00;8.68;;;;;;;15.03;nan;95597.34;5030930;28;20257;-72
2022/11/03 03:51:05;;;;;;;19.42;8.48;;;;;;;14.83;nan;95604.13;5030539;28;20678;-72
2022/11/03 03:53:32;;;;;;;13.18;9.27;;;;;;;14.66;nan;95591.19;5032109;28;20264;-72
2022/11/03 03:55:59;;;;;;;12.38;8.50;;;;;;;14.82;nan;95589.66;5031783;28;20320;-72
2022/11/03 03:58:26;;;;;;;12.63;9.07;;;;;;;14.85;nan;95589.50;5031763;28;21499;-72
2022/11/03 04:00:54;;;;;;;17.00;9.13;;;;;;;14.82;nan;95594.78;5031376;28;20784;-72
2022/11/03 04:03:23;;;;;;;15.30;9.60;;;;;;;14.80;nan;95588.91;5030904;28;20774;-72
2022/11/03 04:05:50;;;;;;;18.50;10.35;;;;;;;14.92;nan;95590.94;5032115;28;20210;-72
2022/11/03 04:08:17;;;;;;;14.15;9.10;;;;;;;15.01;nan;95596.56;5031395;28;20230;-72
2022/11/03 04:22:15;;;;;;;15.55;9.93;;;;;;;15.01;nan;95591.44;5031140;28;20210;-72
2022/11/03 04:24:31;;;;;;;17.77;10.30;;;;;;;14.69;nan;95596.16;5029844;28;20268;-71
2022/11/03 04:27:02;;;;;;;17.23;9.55;;;;;;;14.60;nan;95591.41;5029031;28;20677;-71
2022/11/03 04:29:29;;;;;;;17.40;10.63;;;;;;;14.54;nan;95594.25;5029642;28;20211;-71
2022/11/03 04:31:57;;;;;;;20.80;10.60;;;;;;;14.63;nan;95591.28;5030043;28;20751;-74
2022/11/03 04:34:24;;;;;;;17.70;11.13;;;;;;;14.57;nan;95596.69;5030056;28;20298;-73
2022/11/03 04:36:51;;;;;;;16.60;10.90;;;;;;;14.72;nan;95596.06;5031034;28;20211;-72
2022/11/03 04:39:20;;;;;;;20.60;10.35;;;;;;;14.69;nan;95583.38;5028650;28;20211;-70
2022/11/03 04:41:47;;;;;;;13.68;10.60;;;;;;;14.74;nan;95589.16;5028998;28;20700;-73
2022/11/03 04:44:15;;;;;;;19.33;12.85;;;;;;;14.68;nan;95588.56;5029882;28;20238;-72
2022/11/03 04:46:43;;;;;;;39.47;19.13;;;;;;;14.61;nan;95587.97;5029747;28;20294;-71
2022/11/03 04:49:20;;;;;;;37.75;22.63;;;;;;;14.44;nan;95590.38;5029731;28;20581;-73
2022/11/03 04:51:48;;;;;;;40.85;23.52;;;;;;;14.43;nan;95594.66;5027585;28;20223;-73
2022/11/03 04:54:18;;;;;;;30.77;17.42;;;;;;;14.47;nan;95593.66;5026884;28;20261;-71
2022/11/03 04:56:45;;;;;;;23.52;13.10;;;;;;;14.57;nan;95591.56;5023396;28;20301;-71
2022/11/03 04:59:13;;;;;;;16.45;11.43;;;;;;;14.75;nan;95598.47;5022925;28;20349;-73
2022/11/03 05:01:40;;;;;;;21.08;10.65;;;;;;;14.49;nan;95598.72;5025450;28;20277;-70
2022/11/03 05:04:13;;;;;;;44.08;27.65;;;;;;;14.38;nan;95595.72;5025921;28;20243;-72
2022/11/03 05:06:41;;;;;;;36.92;20.13;;;;;;;14.49;nan;95596.16;5025215;28;20227;-72
2022/11/03 05:09:14;;;;;;;21.65;13.20;;;;;;;14.62;nan;95597.31;5025997;28;20297;-71
2022/11/03 05:11:44;;;;;;;22.40;12.55;;;;;;;14.58;nan;95595.78;5025872;28;20224;-71
2022/11/03 05:14:15;;;;;;;17.95;11.25;;;;;;;14.61;nan;95611.81;5025524;28;20219;-72
2022/11/03 05:16:42;;;;;;;22.38;11.65;;;;;;;14.78;nan;95600.09;5026369;28;20695;-74
2022/11/03 05:19:18;;;;;;;22.65;10.98;;;;;;;14.83;nan;95598.19;5025717;28;20870;-74
2022/11/03 05:21:47;;;;;;;24.92;11.38;;;;;;;14.87;nan;95600.53;5026759;28;20689;-72
2022/11/03 05:24:14;;;;;;;27.42;12.27;;;;;;;14.84;nan;95602.41;5025221;28;20228;-73
2022/11/03 05:26:41;;;;;;;27.70;9.93;;;;;;;14.83;nan;95598.19;5025771;28;20221;-73
2022/11/03 05:29:16;;;;;;;27.98;12.30;;;;;;;14.71;nan;95608.91;5026472;28;20234;-73
2022/11/03 05:31:44;;;;;;;23.40;14.13;;;;;;;15.17;nan;95610.38;5025504;28;20326;-73
2022/11/03 05:34:32;;;;;;;31.45;18.35;;;;;;;15.40;nan;95615.31;5025798;28;20210;-72
2022/11/03 05:37:00;;;;;;;40.00;17.55;;;;;;;15.59;nan;95611.09;5026589;28;20248;-72
2022/11/03 05:39:30;;;;;;;28.75;13.77;;;;;;;15.75;nan;95618.94;5025966;28;20263;-72
2022/11/03 05:41:59;;;;;;;23.83;14.98;;;;;;;15.64;nan;95626.25;5023919;28;20207;-72
2022/11/03 05:44:32;;;;;;;29.25;15.07;;;;;;;15.70;nan;95627.72;5026132;28;20226;-72
2022/11/03 05:47:00;;;;;;;27.50;15.93;;;;;;;15.79;nan;95624.75;5025511;28;20298;-73
2022/11/03 05:49:30;;;;;;;32.00;16.73;;;;;;;15.98;nan;95623.03;5024883;28;20215;-73
2022/11/03 05:51:56;;;;;;;34.05;18.83;;;;;;;16.36;nan;95623.78;5025717;28;20683;-73
2022/11/03 05:54:27;;;;;;;31.30;16.73;;;;;;;16.28;nan;95629.31;5024896;28;20673;-73
2022/11/03 05:56:55;;;;;;;29.55;14.38;;;;;;;16.15;nan;95625.63;5024919;28;20312;-72
2022/11/03 05:59:26;;;;;;;26.80;14.10;;;;;;;15.95;nan;95639.38;5024469;28;20626;-72
2022/11/03 06:01:54;;;;;;;31.20;15.18;;;;;;;16.13;nan;95642.81;5024203;28;20262;-75
2022/11/03 06:04:27;;;;;;;22.73;14.95;;;;;;;16.75;nan;95641.63;5024635;28;20248;-72
2022/11/03 06:07:00;;;;;;;28.38;13.63;;;;;;;17.46;nan;95642.34;5024472;28;21096;-73
2022/11/03 06:09:27;;;;;;;34.83;15.30;;;;;;;17.92;nan;95647.69;5024628;28;20214;-73
2022/11/03 06:11:56;;;;;;;23.83;13.80;;;;;;;18.15;nan;95652.41;5025686;28;20985;-73
2022/11/03 06:14:25;;;;;;;25.98;13.40;;;;;;;18.76;nan;95655.97;5024103;28;20276;-73
2022/11/03 06:16:54;;;;;;;19.88;12.48;;;;;;;19.08;nan;95654.13;5025698;28;20225;-73
2022/11/03 06:19:25;;;;;;;19.05;12.00;;;;;;;19.24;nan;95662.66;5024784;28;20207;-73
2022/11/03 06:21:56;;;;;;;20.98;13.40;;;;;;;18.77;nan;95660.22;5024856;28;20269;-73
2022/11/03 06:24:26;;;;;;;24.83;14.23;;;;;;;18.42;nan;95667.28;5024523;28;20797;-72
2022/11/03 06:26:53;;;;;;;22.85;15.00;;;;;;;18.39;nan;95659.72;5025236;28;20321;-72
2022/11/03 06:29:21;;;;;;;37.03;16.50;;;;;;;18.71;nan;95665.69;5022156;28;20207;-69
2022/11/03 06:31:49;;;;;;;33.10;15.73;;;;;;;19.78;nan;95668.09;5020705;28;20258;-71
2022/11/03 06:34:37;;;;;;;29.77;16.15;;;;;;;20.60;nan;95668.97;5020242;28;20195;-73
2022/11/03 06:37:16;;;;;;;25.92;15.32;;;;;;;21.39;nan;95660.44;5022531;28;20211;-73
2022/11/03 06:39:43;;;;;;;29.38;15.52;;;;;;;22.64;nan;95654.34;5021489;28;20272;-69
2022/11/03 06:42:13;;;;;;;119.75;20.15;;;;;;;23.21;nan;95653.66;5020639;28;20622;-71
2022/11/03 06:44:41;;;;;;;35.60;16.88;;;;;;;22.13;nan;95664.88;5019579;28;20648;-69
2022/11/03 06:47:20;;;;;;;30.35;16.10;;;;;;;20.95;nan;95661.56;5022236;28;20219;-72
2022/11/03 06:49:47;;;;;;;26.58;15.43;;;;;;;20.44;nan;95672.63;5021125;28;20203;-74
2022/11/03 06:52:23;;;;;;;81.05;46.90;;;;;;;20.11;nan;95676.34;5019901;28;20278;-71
2022/11/03 06:54:53;;;;;;;35.55;21.23;;;;;;;19.94;nan;95671.38;5019647;28;20214;-66
2022/11/03 06:57:20;;;;;;;29.45;18.67;;;;;;;19.89;nan;95658.75;5020179;28;20744;-70
2022/11/03 06:59:47;;;;;;;596.75;64.82;;;;;;;20.03;nan;95668.25;5020795;28;20353;-70
2022/11/03 07:02:47;;;;;;;30.25;18.83;;;;;;;20.74;nan;95665.53;5020058;28;20639;-73
2022/11/03 07:05:21;;;;;;;34.15;17.45;;;;;;;21.82;nan;95662.69;5025005;28;20268;-69
2022/11/03 07:07:50;;;;;;;244.00;36.38;;;;;;;22.25;nan;95658.00;5029388;28;20324;-70
2022/11/03 07:10:17;;;;;;;44.42;18.05;;;;;;;22.81;nan;95653.16;5028169;28;20621;-74
2022/11/03 07:12:44;;;;;;;250.60;34.35;;;;;;;23.18;nan;95651.31;5031186;28;20220;-71
2022/11/03 07:15:24;;;;;;;1988.00;261.92;;;;;;;22.97;nan;95669.25;5024904;28;20217;-62
2022/11/03 07:17:51;;;;;;;95.00;24.13;;;;;;;22.38;nan;95669.97;5024958;28;21355;-63
